Time,TemperatureF,DewpointF,PressureIn,WindDirection,WindDirectionDegrees,WindSpeedMPH,WindSpeedGustMPH,Humidity,HourlyPrecipIn,Conditions,Clouds,dailyrainin,SolarRadiationWatts/m^2,SoftwareType,DateUTC
2013-03-03 00:21:00,33.0,33.0,-100.00,ENE,59,0.0,2.0,99,0.06,,,0.30,0.000000,,2013-03-03 08:21:00,
2013-03-03 00:31:00,33.0,33.0,-100.00,ENE,59,0.0,2.0,99,0.06,,,0.30,0.000000,,2013-03-03 08:31:00,
2013-03-03 00:41:00,33.0,33.0,-100.00,ENE,59,0.0,2.0,99,0.06,,,0.30,0.000000,,2013-03-03 08:41:00,
2013-03-03 01:21:00,33.0,33.0,-100.00,NNE,16,1.0,3.0,99,0.02,,,0.32,0.000000,,2013-03-03 09:21:00,
2013-03-03 01:32:00,33.0,33.0,-100.00,NNE,16,1.0,3.0,99,0.02,,,0.32,0.000000,,2013-03-03 09:32:00,
2013-03-03 01:41:00,33.0,33.0,-100.00,NNE,16,1.0,3.0,99,0.02,,,0.32,0.000000,,2013-03-03 09:41:00,
2013-03-03 01:51:00,33.0,33.0,-100.00,NNE,16,1.0,3.0,99,0.02,,,0.32,0.000000,,2013-03-03 09:51:00,
2013-03-03 02:11:00,33.0,33.0,-100.00,ENE,74,0.0,3.0,99,0.03,,,0.35,0.000000,,2013-03-03 10:11:00,
2013-03-03 02:21:00,33.0,33.0,-100.00,ENE,74,0.0,3.0,99,0.03,,,0.35,0.000000,,2013-03-03 10:21:00,
2013-03-03 02:32:00,33.0,33.0,-100.00,ENE,74,0.0,3.0,99,0.03,,,0.35,0.000000,,2013-03-03 10:32:00,
2013-03-03 02:42:00,33.0,33.0,-100.00,ENE,74,0.0,3.0,99,0.03,,,0.35,0.000000,,2013-03-03 10:42:00,
2013-03-03 02:51:00,33.0,33.0,-100.00,ENE,74,0.0,3.0,99,0.03,,,0.35,0.000000,,2013-03-03 10:51:00,
2013-03-03 02:52:00,36.0,36.0,-100.00,SE,124,0.0,8.0,100,0.03,,,0.38,0.000000,,2013-03-03 10:52:00,
2013-03-03 03:11:00,36.0,36.0,-100.00,SE,124,0.0,8.0,100,0.03,,,0.38,0.000000,,2013-03-03 11:11:00,
2013-03-03 03:21:00,36.0,36.0,-100.00,SE,124,0.0,8.0,100,0.03,,,0.38,0.000000,,2013-03-03 11:21:00,
2013-03-03 03:31:00,36.0,36.0,-100.00,SE,124,0.0,8.0,100,0.03,,,0.38,0.000000,,2013-03-03 11:31:00,
2013-03-03 03:41:00,36.0,36.0,-100.00,SE,124,0.0,8.0,100,0.03,,,0.38,0.000000,,2013-03-03 11:41:00,
2013-03-03 03:52:00,34.0,32.0,-100.00,East,84,2.0,11.0,93,0.08,,,0.46,0.000000,,2013-03-03 11:52:00,
2013-03-03 04:11:00,34.0,32.0,-100.00,East,84,2.0,11.0,93,0.08,,,0.46,0.000000,,2013-03-03 12:11:00,
2013-03-03 04:21:00,34.0,32.0,-100.00,East,84,2.0,11.0,93,0.08,,,0.46,0.000000,,2013-03-03 12:21:00,
2013-03-03 04:32:00,34.0,32.0,-100.00,East,84,2.0,11.0,93,0.08,,,0.46,0.000000,,2013-03-03 12:32:00,
2013-03-03 04:42:00,34.0,32.0,-100.00,East,84,2.0,11.0,93,0.08,,,0.46,0.000000,,2013-03-03 12:42:00,
2013-03-03 05:11:00,32.0,31.0,-100.00,SE,141,1.0,13.0,96,0.00,,,0.46,0.000000,,2013-03-03 13:11:00,
2013-03-03 05:21:00,32.0,31.0,-100.00,SE,141,1.0,13.0,96,0.00,,,0.46,0.000000,,2013-03-03 13:21:00,
2013-03-03 05:32:00,32.0,31.0,-100.00,SE,141,1.0,13.0,96,0.00,,,0.46,0.000000,,2013-03-03 13:32:00,
2013-03-03 05:41:00,32.0,31.0,-100.00,SE,141,1.0,13.0,96,0.00,,,0.46,0.000000,,2013-03-03 13:41:00,
2013-03-03 05:51:00,32.0,31.0,-100.00,SE,141,1.0,13.0,96,0.00,,,0.46,0.000000,,2013-03-03 13:51:00,
2013-03-03 05:52:00,31.0,30.0,-100.00,SE,125,0.0,6.0,96,0.00,,,0.46,0.000000,,2013-03-03 13:52:00,
2013-03-03 06:21:00,31.0,30.0,-100.00,SE,125,0.0,6.0,96,0.00,,,0.46,0.000000,,2013-03-03 14:21:00,
2013-03-03 06:32:00,31.0,30.0,-100.00,SE,125,0.0,6.0,96,0.00,,,0.46,0.000000,,2013-03-03 14:32:00,
2013-03-03 06:42:00,31.0,30.0,-100.00,SE,125,0.0,6.0,96,0.00,,,0.46,0.000000,,2013-03-03 14:42:00,
2013-03-03 07:11:00,30.0,28.0,-100.00,SE,132,1.0,6.0,93,0.00,,,0.46,3.000000,,2013-03-03 15:11:00,
2013-03-03 07:22:00,30.0,28.0,-100.00,SE,132,1.0,6.0,93,0.00,,,0.46,3.000000,,2013-03-03 15:22:00,
2013-03-03 07:32:00,30.0,28.0,-100.00,SE,132,1.0,6.0,93,0.00,,,0.46,3.000000,,2013-03-03 15:32:00,
2013-03-03 07:42:00,30.0,28.0,-100.00,SE,132,1.0,6.0,93,0.00,,,0.46,3.000000,,2013-03-03 15:42:00,
2013-03-03 07:51:00,30.0,28.0,-100.00,SE,132,1.0,6.0,93,0.00,,,0.46,3.000000,,2013-03-03 15:51:00,
2013-03-03 08:12:00,29.0,27.0,-100.00,ENE,68,2.0,6.0,94,0.00,,,-99.99,13.000000,,2013-03-03 16:12:00,
2013-03-03 08:21:00,29.0,27.0,-100.00,ENE,68,2.0,6.0,94,0.00,,,-99.99,13.000000,,2013-03-03 16:21:00,
2013-03-03 08:31:00,29.0,27.0,-100.00,ENE,68,2.0,6.0,94,0.00,,,-99.99,13.000000,,2013-03-03 16:31:00,
2013-03-03 08:41:00,29.0,27.0,-100.00,ENE,68,2.0,6.0,94,0.00,,,-99.99,13.000000,,2013-03-03 16:41:00,
2013-03-03 08:51:00,29.0,27.0,-100.00,ENE,68,2.0,6.0,94,0.00,,,-99.99,13.000000,,2013-03-03 16:51:00,
2013-03-03 08:52:00,31.0,26.0,-100.00,ESE,115,3.0,10.0,81,0.00,,,0.46,44.000000,,2013-03-03 16:52:00,
2013-03-03 09:11:00,31.0,26.0,-100.00,ESE,115,3.0,10.0,81,0.00,,,0.46,44.000000,,2013-03-03 17:11:00,
2013-03-03 09:22:00,31.0,26.0,-100.00,ESE,115,3.0,10.0,81,0.00,,,0.46,44.000000,,2013-03-03 17:22:00,
2013-03-03 09:32:00,31.0,26.0,-100.00,ESE,115,3.0,10.0,81,0.00,,,0.46,44.000000,,2013-03-03 17:32:00,
2013-03-03 09:42:00,31.0,26.0,-100.00,ESE,115,3.0,10.0,81,0.00,,,0.46,44.000000,,2013-03-03 17:42:00,
2013-03-03 09:52:00,33.0,27.0,-100.00,SSE,165,1.0,10.0,77,0.00,,,0.46,123.000000,,2013-03-03 17:52:00,
2013-03-03 10:21:00,33.0,27.0,-100.00,SSE,165,1.0,10.0,77,0.00,,,0.46,123.000000,,2013-03-03 18:21:00,
2013-03-03 10:31:00,33.0,27.0,-100.00,SSE,165,1.0,10.0,77,0.00,,,0.46,123.000000,,2013-03-03 18:31:00,
2013-03-03 10:41:00,33.0,27.0,-100.00,SSE,165,1.0,10.0,77,0.00,,,0.46,123.000000,,2013-03-03 18:41:00,
2013-03-03 11:11:00,35.0,29.0,-100.00,SE,144,0.0,6.0,78,0.03,,,0.49,109.000000,,2013-03-03 19:11:00,
2013-03-03 11:21:00,35.0,29.0,-100.00,SE,144,0.0,6.0,78,0.03,,,0.49,109.000000,,2013-03-03 19:21:00,
2013-03-03 11:31:00,35.0,29.0,-100.00,SE,144,0.0,6.0,78,0.03,,,0.49,109.000000,,2013-03-03 19:31:00,
2013-03-03 11:42:00,35.0,29.0,-100.00,SE,144,0.0,6.0,78,0.03,,,0.49,109.000000,,2013-03-03 19:42:00,
2013-03-03 11:51:00,35.0,29.0,-100.00,SE,144,0.0,6.0,78,0.03,,,0.49,109.000000,,2013-03-03 19:51:00,
2013-03-03 11:52:00,36.0,25.0,-100.00,ESE,115,2.0,13.0,65,0.01,,,0.50,219.000000,,2013-03-03 19:52:00,
2013-03-03 12:11:00,36.0,25.0,-100.00,ESE,115,2.0,13.0,65,0.01,,,0.50,219.000000,,2013-03-03 20:11:00,
2013-03-03 12:21:00,36.0,25.0,-100.00,ESE,115,2.0,13.0,65,0.01,,,0.50,219.000000,,2013-03-03 20:21:00,
2013-03-03 12:32:00,36.0,25.0,-100.00,ESE,115,2.0,13.0,65,0.01,,,0.50,219.000000,,2013-03-03 20:32:00,
2013-03-03 12:42:00,36.0,25.0,-100.00,ESE,115,2.0,13.0,65,0.01,,,0.50,219.000000,,2013-03-03 20:42:00,
2013-03-03 13:11:00,38.0,24.0,-100.00,SSE,160,5.0,12.0,56,0.00,,,0.50,280.000000,,2013-03-03 21:11:00,
2013-03-03 13:21:00,38.0,24.0,-100.00,SSE,160,5.0,12.0,56,0.00,,,0.50,280.000000,,2013-03-03 21:21:00,
2013-03-03 13:31:00,38.0,24.0,-100.00,SSE,160,5.0,12.0,56,0.00,,,0.50,280.000000,,2013-03-03 21:31:00,
2013-03-03 13:41:00,38.0,24.0,-100.00,SSE,160,5.0,12.0,56,0.00,,,0.50,280.000000,,2013-03-03 21:41:00,
2013-03-03 13:51:00,38.0,24.0,-100.00,SSE,160,5.0,12.0,56,0.00,,,0.50,280.000000,,2013-03-03 21:51:00,
2013-03-03 13:52:00,39.0,22.0,-100.00,SSE,162,4.0,13.0,51,0.00,,,0.50,477.000000,,2013-03-03 21:52:00,
2013-03-03 14:11:00,39.0,22.0,-100.00,SSE,162,4.0,13.0,51,0.00,,,0.50,477.000000,,2013-03-03 22:11:00,
2013-03-03 14:21:00,39.0,22.0,-100.00,SSE,162,4.0,13.0,51,0.00,,,0.50,477.000000,,2013-03-03 22:21:00,
2013-03-03 14:31:00,39.0,22.0,-100.00,SSE,162,4.0,13.0,51,0.00,,,0.50,477.000000,,2013-03-03 22:31:00,
2013-03-03 14:42:00,39.0,22.0,-100.00,SSE,162,4.0,13.0,51,0.00,,,0.50,477.000000,,2013-03-03 22:42:00,
2013-03-03 14:52:00,35.0,24.0,-100.00,South,178,1.0,6.0,65,0.00,,,0.50,94.000000,,2013-03-03 22:52:00,
2013-03-03 15:11:00,35.0,24.0,-100.00,South,178,1.0,6.0,65,0.00,,,0.50,94.000000,,2013-03-03 23:11:00,
2013-03-03 15:21:00,35.0,24.0,-100.00,South,178,1.0,6.0,65,0.00,,,0.50,94.000000,,2013-03-03 23:21:00,
2013-03-03 15:31:00,35.0,24.0,-100.00,South,178,1.0,6.0,65,0.00,,,0.50,94.000000,,2013-03-03 23:31:00,
2013-03-03 15:41:00,35.0,24.0,-100.00,South,178,1.0,6.0,65,0.00,,,0.50,94.000000,,2013-03-03 23:41:00,
2013-03-03 16:11:00,35.0,30.0,-100.00,South,175,0.0,6.0,81,0.00,,,0.50,68.000000,,2013-03-04 00:11:00,
2013-03-03 16:21:00,35.0,30.0,-100.00,South,175,0.0,6.0,81,0.00,,,0.50,68.000000,,2013-03-04 00:21:00,
2013-03-03 16:32:00,35.0,30.0,-100.00,South,175,0.0,6.0,81,0.00,,,0.50,68.000000,,2013-03-04 00:32:00,
2013-03-03 16:41:00,35.0,30.0,-100.00,South,175,0.0,6.0,81,0.00,,,0.50,68.000000,,2013-03-04 00:41:00,
2013-03-03 16:51:00,35.0,30.0,-100.00,South,175,0.0,6.0,81,0.00,,,0.50,68.000000,,2013-03-04 00:51:00,
2013-03-03 17:21:00,33.0,30.0,-100.00,North,4,0.0,6.0,87,0.00,,,0.49,42.000000,,2013-03-04 01:21:00,
2013-03-03 17:31:00,33.0,30.0,-100.00,North,4,0.0,6.0,87,0.00,,,0.49,42.000000,,2013-03-04 01:31:00,
2013-03-03 17:42:00,33.0,30.0,-100.00,North,4,0.0,6.0,87,0.00,,,0.49,42.000000,,2013-03-04 01:42:00,
2013-03-03 17:51:00,33.0,30.0,-100.00,North,4,0.0,6.0,87,0.00,,,0.49,42.000000,,2013-03-04 01:51:00,
2013-03-03 17:52:00,30.0,28.0,-100.00,SSW,213,0.0,2.0,92,0.00,,,0.45,19.000000,,2013-03-04 01:52:00,
2013-03-03 18:11:00,30.0,28.0,-100.00,SSW,213,0.0,2.0,92,0.00,,,0.45,19.000000,,2013-03-04 02:11:00,
2013-03-03 18:22:00,30.0,28.0,-100.00,SSW,213,0.0,2.0,92,0.00,,,0.45,19.000000,,2013-03-04 02:22:00,
2013-03-03 18:31:00,30.0,28.0,-100.00,SSW,213,0.0,2.0,92,0.00,,,0.45,19.000000,,2013-03-04 02:31:00,
2013-03-03 18:41:00,30.0,28.0,-100.00,SSW,213,0.0,2.0,92,0.00,,,0.45,19.000000,,2013-03-04 02:41:00,
2013-03-03 18:52:00,28.0,27.0,-100.00,ENE,73,0.0,1.0,95,0.00,,,0.43,0.000000,,2013-03-04 02:52:00,
2013-03-03 19:21:00,28.0,27.0,-100.00,ENE,73,0.0,1.0,95,0.00,,,0.43,0.000000,,2013-03-04 03:21:00,
2013-03-03 19:32:00,28.0,27.0,-100.00,ENE,73,0.0,1.0,95,0.00,,,0.43,0.000000,,2013-03-04 03:32:00,
2013-03-03 19:41:00,28.0,27.0,-100.00,ENE,73,0.0,1.0,95,0.00,,,0.43,0.000000,,2013-03-04 03:41:00,
2013-03-03 20:22:00,27.0,26.0,-100.00,NNE,26,0.0,1.0,95,0.00,,,0.39,0.000000,,2013-03-04 04:22:00,
2013-03-03 20:32:00,27.0,26.0,-100.00,NNE,26,0.0,1.0,95,0.00,,,0.39,0.000000,,2013-03-04 04:32:00,
2013-03-03 20:42:00,27.0,26.0,-100.00,NNE,26,0.0,1.0,95,0.00,,,0.39,0.000000,,2013-03-04 04:42:00,
2013-03-03 20:51:00,27.0,26.0,-100.00,NNE,26,0.0,1.0,95,0.00,,,0.39,0.000000,,2013-03-04 04:51:00,
2013-03-03 20:52:00,26.0,25.0,-100.00,NNE,26,0.0,0.0,95,0.00,,,0.35,0.000000,,2013-03-04 04:52:00,
2013-03-03 21:11:00,26.0,25.0,-100.00,NNE,26,0.0,0.0,95,0.00,,,0.35,0.000000,,2013-03-04 05:11:00,
2013-03-03 21:22:00,26.0,25.0,-100.00,NNE,26,0.0,0.0,95,0.00,,,0.35,0.000000,,2013-03-04 05:22:00,
2013-03-03 21:31:00,26.0,25.0,-100.00,NNE,26,0.0,0.0,95,0.00,,,0.35,0.000000,,2013-03-04 05:31:00,
2013-03-03 21:42:00,26.0,25.0,-100.00,NNE,26,0.0,0.0,95,0.00,,,0.35,0.000000,,2013-03-04 05:42:00,
2013-03-03 22:11:00,25.0,24.0,-100.00,North,359,0.0,2.0,96,0.00,,,0.32,0.000000,,2013-03-04 06:11:00,
2013-03-03 22:21:00,25.0,24.0,-100.00,North,359,0.0,2.0,96,0.00,,,0.32,0.000000,,2013-03-04 06:21:00,
2013-03-03 22:31:00,25.0,24.0,-100.00,North,359,0.0,2.0,96,0.00,,,0.32,0.000000,,2013-03-04 06:31:00,
2013-03-03 22:42:00,25.0,24.0,-100.00,North,359,0.0,2.0,96,0.00,,,0.32,0.000000,,2013-03-04 06:42:00,
2013-03-03 22:51:00,25.0,24.0,-100.00,North,359,0.0,2.0,96,0.00,,,0.32,0.000000,,2013-03-04 06:51:00,
2013-03-03 23:21:00,23.0,22.0,-100.00,North,11,0.0,0.0,96,0.00,,,0.26,0.000000,,2013-03-04 07:21:00,
2013-03-03 23:32:00,23.0,22.0,-100.00,North,11,0.0,0.0,96,0.00,,,0.26,0.000000,,2013-03-04 07:32:00,
2013-03-03 23:41:00,23.0,22.0,-100.00,North,11,0.0,0.0,96,0.00,,,0.26,0.000000,,2013-03-04 07:41:00,
2013-03-03 23:51:00,23.0,22.0,-100.00,North,11,0.0,0.0,96,0.00,,,0.26,0.000000,,2013-03-04 07:51:00,
2013-03-03 23:52:00,21.0,20.0,-100.00,North,11,0.0,0.0,95,0.00,,,0.20,0.000000,,2013-03-04 07:52:00,